createdAt,value
2023-04-22T00:01:38.907Z,6.93
2023-04-22T00:04:11.529Z,6.85
2023-04-22T00:06:44.789Z,7.68
2023-04-22T00:09:17.817Z,6.80
2023-04-22T00:11:50.220Z,6.97
2023-04-22T00:14:22.499Z,6.45
2023-04-22T00:16:55.035Z,7.35
2023-04-22T00:19:27.499Z,6.30
2023-04-22T00:21:59.750Z,4.80
2023-04-22T00:24:32.712Z,4.05
2023-04-22T00:27:05.245Z,5.93
2023-04-22T00:29:37.962Z,6.85
2023-04-22T00:32:10.735Z,6.43
2023-04-22T00:34:43.165Z,7.25
2023-04-22T00:37:15.641Z,6.28
2023-04-22T00:39:48.595Z,8.77
2023-04-22T00:42:21.522Z,9.75
2023-04-22T00:44:54.129Z,10.23
2023-04-22T00:47:27.276Z,12.70
2023-04-22T00:50:01.517Z,12.00
2023-04-22T00:52:34.109Z,10.90
2023-04-22T00:55:08.248Z,11.02
2023-04-22T00:57:40.779Z,10.75
2023-04-22T01:00:13.724Z,9.35
2023-04-22T01:02:46.786Z,10.10
2023-04-22T01:05:19.681Z,8.85
2023-04-22T01:07:52.064Z,8.32
2023-04-22T01:10:25.134Z,6.68
2023-04-22T01:12:57.472Z,7.55
2023-04-22T01:15:30.033Z,6.75
2023-04-22T01:18:03.249Z,5.20
2023-04-22T01:20:36.240Z,6.00
2023-04-22T01:23:17.771Z,5.60
2023-04-22T01:25:50.176Z,7.28
2023-04-22T01:28:23.494Z,8.57
2023-04-22T01:30:56.454Z,8.05
2023-04-22T01:33:28.881Z,6.55
2023-04-22T01:36:01.503Z,6.10
2023-04-22T01:38:34.708Z,4.60
2023-04-22T01:41:07.568Z,5.00
2023-04-22T01:43:40.190Z,5.07
2023-04-22T01:46:12.615Z,7.72
2023-04-22T01:48:49.738Z,6.70
2023-04-22T01:51:22.925Z,7.38
2023-04-22T01:53:56.339Z,8.18
2023-04-22T01:56:29.553Z,9.55
2023-04-22T01:59:02.474Z,10.23
2023-04-22T02:01:38.280Z,8.75
2023-04-22T02:04:12.217Z,11.57
2023-04-22T02:06:44.971Z,11.27
2023-04-22T02:09:18.004Z,9.95
2023-04-22T02:11:50.329Z,9.75
2023-04-22T02:14:26.548Z,10.02
2023-04-22T02:16:58.876Z,10.07
2023-04-22T02:19:31.197Z,9.85
2023-04-22T02:22:03.632Z,7.88
2023-04-22T02:24:36.625Z,7.72
2023-04-22T02:27:09.250Z,8.02
2023-04-22T02:29:42.488Z,8.55
2023-04-22T02:32:16.543Z,9.48
2023-04-22T02:34:48.942Z,7.07
2023-04-22T02:37:22.381Z,6.38
2023-04-22T02:39:55.390Z,5.75
2023-04-22T02:42:27.998Z,7.88
2023-04-22T02:45:01.001Z,6.95
2023-04-22T02:47:33.390Z,10.00
2023-04-22T02:50:06.954Z,8.82
2023-04-22T02:52:39.238Z,9.02
2023-04-22T02:55:12.268Z,5.88
2023-04-22T02:57:45.193Z,6.47
2023-04-22T03:00:17.530Z,7.07
2023-04-22T03:02:50.078Z,7.72
2023-04-22T03:05:24.812Z,6.38
2023-04-22T03:07:57.196Z,6.47
2023-04-22T03:10:30.177Z,5.90
2023-04-22T03:13:02.557Z,6.57
2023-04-22T03:15:35.632Z,7.13
2023-04-22T03:18:08.337Z,6.75
2023-04-22T03:20:40.799Z,6.10
2023-04-22T03:23:13.713Z,7.50
2023-04-22T03:25:46.724Z,6.85
2023-04-22T03:28:19.115Z,6.60
2023-04-22T03:30:51.780Z,7.57
2023-04-22T03:33:24.219Z,7.72
2023-04-22T03:36:04.068Z,8.13
2023-04-22T03:38:36.942Z,8.70
2023-04-22T03:41:10.368Z,7.85
2023-04-22T03:43:46.328Z,8.68
2023-04-22T03:46:18.761Z,8.18
2023-04-22T03:48:59.396Z,7.70
2023-04-22T03:51:34.618Z,9.95
2023-04-22T03:54:11.438Z,8.60
2023-04-22T03:56:50.705Z,25.23
2023-04-22T03:59:24.845Z,72.43
2023-04-22T04:01:57.246Z,40.58
2023-04-22T04:04:32.547Z,19.20
2023-04-22T04:07:07.451Z,12.80
2023-04-22T04:09:40.026Z,13.30
2023-04-22T04:12:13.450Z,14.02
2023-04-22T04:14:49.430Z,14.25
2023-04-22T04:17:28.255Z,11.10
2023-04-22T04:20:01.398Z,11.77
2023-04-22T04:22:40.839Z,13.20
2023-04-22T04:25:13.218Z,11.27
2023-04-22T04:27:51.197Z,11.55
2023-04-22T04:30:25.069Z,13.32
2023-04-22T04:33:06.144Z,9.35
2023-04-22T04:35:40.928Z,10.10
2023-04-22T04:38:15.992Z,9.07
2023-04-22T04:40:49.225Z,10.93
2023-04-22T04:43:26.413Z,12.82
2023-04-22T04:48:49.975Z,6.47
2023-04-22T04:51:22.518Z,8.15
2023-04-22T04:53:58.705Z,8.30
2023-04-22T04:56:34.814Z,8.63
2023-04-22T04:59:08.276Z,8.63
2023-04-22T05:01:40.740Z,9.75
2023-04-22T05:04:15.418Z,9.95
2023-04-22T05:06:49.437Z,9.00
2023-04-22T05:09:22.046Z,9.00
2023-04-22T05:11:55.578Z,13.25
2023-04-22T05:14:28.826Z,8.48
2023-04-22T05:17:02.568Z,7.07
2023-04-22T05:19:35.200Z,6.60
2023-04-22T05:22:07.793Z,8.82
2023-04-22T05:24:40.091Z,8.07
2023-04-22T05:27:12.750Z,6.70
2023-04-22T05:29:45.826Z,6.00
2023-04-22T05:32:19.575Z,5.05
2023-04-22T05:34:52.002Z,5.30
2023-04-22T05:37:24.325Z,5.30
2023-04-22T05:39:57.146Z,4.97
2023-04-22T05:42:29.784Z,5.22
2023-04-22T05:45:02.874Z,4.93
2023-04-22T05:47:35.257Z,6.32
2023-04-22T05:50:09.279Z,4.72
2023-04-22T05:52:48.572Z,4.38
2023-04-22T05:55:23.686Z,4.82
2023-04-22T05:57:56.058Z,4.40
2023-04-22T06:00:46.301Z,4.38
2023-04-22T06:03:38.947Z,4.40
2023-04-22T06:06:11.493Z,5.38
2023-04-22T06:08:45.004Z,4.70
2023-04-22T06:11:18.279Z,5.03
2023-04-22T06:13:50.598Z,5.15
2023-04-22T06:16:24.101Z,5.07
2023-04-22T06:18:56.644Z,6.22
2023-04-22T06:21:31.855Z,5.20
2023-04-22T06:24:04.734Z,5.78
2023-04-22T06:26:37.299Z,4.95
2023-04-22T06:29:09.665Z,5.10
2023-04-22T06:31:45.072Z,4.80
2023-04-22T06:34:17.476Z,4.88
2023-04-22T06:36:50.583Z,5.60
2023-04-22T06:39:22.984Z,4.57
2023-04-22T06:42:24.304Z,3.75
2023-04-22T06:45:35.240Z,3.60
2023-04-22T06:48:28.629Z,3.13
2023-04-22T06:51:21.297Z,3.47
2023-04-22T06:53:53.647Z,3.67
2023-04-22T06:56:26.071Z,4.40
2023-04-22T06:58:58.395Z,3.67
2023-04-22T07:01:31.199Z,2.75
2023-04-22T07:04:04.676Z,3.83
2023-04-22T07:06:37.327Z,3.88
2023-04-22T07:09:09.985Z,3.45
2023-04-22T07:11:43.477Z,3.85
2023-04-22T07:14:22.203Z,4.72
2023-04-22T07:16:54.579Z,3.25
2023-04-22T07:19:27.639Z,3.17
2023-04-22T07:22:00.080Z,2.97
2023-04-22T07:24:32.858Z,3.05
2023-04-22T07:27:05.289Z,3.25
2023-04-22T07:29:37.755Z,3.15
2023-04-22T07:32:10.660Z,3.90
2023-04-22T07:34:43.792Z,3.67
2023-04-22T07:37:16.105Z,2.95
2023-04-22T07:39:48.418Z,3.17
2023-04-22T07:42:20.822Z,3.08
2023-04-22T07:44:53.115Z,3.30
2023-04-22T07:47:25.538Z,3.08
2023-04-22T07:49:58.735Z,3.08
2023-04-22T07:52:31.150Z,3.70
2023-04-22T07:55:04.179Z,3.25
2023-04-22T07:57:38.338Z,3.80
2023-04-22T08:00:11.674Z,3.20
2023-04-22T08:03:05.516Z,3.33
2023-04-22T08:05:38.689Z,3.28
2023-04-22T08:08:11.056Z,3.58
2023-04-22T08:10:43.402Z,3.97
2023-04-22T08:13:17.800Z,3.67
2023-04-22T08:15:50.692Z,2.97
2023-04-22T08:18:23.053Z,2.92
2023-04-22T08:20:56.338Z,2.72
2023-04-22T08:23:28.692Z,3.20
2023-04-22T08:26:01.673Z,2.80
2023-04-22T08:28:34.247Z,3.17
2023-04-22T08:31:08.628Z,2.78
2023-04-22T08:33:41.055Z,2.47
2023-04-22T08:36:14.387Z,2.95
2023-04-22T08:38:48.874Z,3.30
2023-04-22T08:41:23.845Z,2.67
2023-04-22T08:43:56.725Z,3.28
2023-04-22T08:46:31.036Z,2.72
2023-04-22T08:49:03.992Z,3.15
2023-04-22T08:51:37.872Z,2.95
2023-04-22T08:54:10.780Z,3.33
2023-04-22T08:56:44.818Z,2.95
2023-04-22T08:59:18.203Z,2.70
2023-04-22T09:01:53.320Z,3.35
2023-04-22T09:04:26.013Z,3.13
2023-04-22T09:07:01.441Z,3.35
2023-04-22T09:09:34.300Z,4.28
2023-04-22T09:12:06.711Z,3.17
2023-04-22T09:14:39.568Z,2.45
2023-04-22T09:17:15.261Z,2.80
2023-04-22T09:19:57.569Z,2.97
2023-04-22T09:22:38.387Z,2.55
2023-04-22T09:25:17.376Z,2.28
2023-04-22T09:27:50.884Z,2.80
2023-04-22T09:30:24.695Z,2.60
2023-04-22T09:32:58.166Z,2.72
2023-04-22T09:35:31.786Z,2.45
2023-04-22T09:38:07.313Z,2.80
2023-04-22T09:40:42.761Z,2.35
2023-04-22T09:43:18.702Z,2.15
2023-04-22T09:45:51.145Z,2.63
2023-04-22T09:48:23.534Z,2.80
2023-04-22T09:50:55.873Z,2.22
2023-04-22T09:53:29.255Z,1.73
2023-04-22T09:56:04.418Z,2.25
2023-04-22T09:58:39.921Z,2.15
2023-04-22T10:01:12.324Z,2.17
2023-04-22T10:03:44.966Z,2.00
2023-04-22T10:06:17.363Z,1.85
2023-04-22T10:08:50.445Z,1.98
2023-04-22T10:11:22.750Z,1.83
2023-04-22T10:13:55.125Z,2.33
2023-04-22T10:16:31.023Z,2.00
2023-04-22T10:19:05.985Z,2.20
2023-04-22T10:21:41.658Z,1.63
2023-04-22T10:24:18.631Z,1.65
2023-04-22T10:26:56.904Z,2.00
2023-04-22T10:29:36.356Z,2.03
2023-04-22T10:32:25.254Z,2.00
2023-04-22T10:35:09.423Z,1.95
2023-04-22T10:37:42.738Z,2.40
2023-04-22T10:40:17.886Z,2.65
2023-04-22T10:42:52.654Z,2.35
2023-04-22T10:45:26.029Z,2.50
2023-04-22T10:48:03.567Z,2.40
2023-04-22T10:50:38.932Z,2.50
2023-04-22T10:53:35.537Z,2.40
2023-04-22T10:56:17.531Z,2.35
2023-04-22T10:58:49.870Z,2.88
2023-04-22T11:01:22.421Z,2.60
2023-04-22T11:04:15.101Z,2.97
2023-04-22T11:07:13.801Z,2.05
2023-04-22T11:09:49.513Z,2.25
2023-04-22T11:12:44.380Z,1.98
2023-04-22T11:15:18.110Z,2.20
2023-04-22T11:17:51.996Z,2.08
2023-04-22T11:20:24.355Z,1.65
2023-04-22T11:22:57.665Z,1.73
2023-04-22T11:25:30.291Z,2.05
2023-04-22T11:28:03.910Z,2.35
2023-04-22T11:30:36.236Z,2.70
2023-04-22T11:33:08.871Z,2.00
2023-04-22T11:35:42.068Z,2.42
2023-04-22T11:38:14.345Z,2.67
2023-04-22T11:40:47.649Z,2.00
2023-04-22T11:43:21.047Z,2.35
2023-04-22T11:45:55.905Z,2.30
2023-04-22T11:48:28.440Z,1.52
2023-04-22T11:51:09.383Z,1.35
2023-04-22T11:53:50.144Z,1.13
2023-04-22T11:56:22.528Z,1.48
2023-04-22T11:58:55.468Z,1.48
2023-04-22T12:01:29.726Z,1.55
2023-04-22T12:04:02.985Z,1.80
2023-04-22T12:06:35.313Z,1.52
2023-04-22T12:09:08.024Z,1.27
2023-04-22T12:11:40.371Z,1.48
2023-04-22T12:14:13.366Z,2.83
2023-04-22T12:16:45.766Z,2.00
2023-04-22T12:19:25.888Z,1.88
2023-04-22T12:21:58.274Z,1.52
2023-04-22T12:24:30.868Z,1.80
2023-04-22T12:27:03.844Z,1.83
2023-04-22T12:29:37.115Z,1.90
2023-04-22T12:32:09.788Z,2.00
2023-04-22T12:34:42.158Z,2.05
2023-04-22T12:37:14.698Z,2.10
2023-04-22T12:39:47.060Z,1.95
2023-04-22T12:42:19.411Z,2.08
2023-04-22T12:44:52.404Z,2.33
2023-04-22T12:47:24.972Z,1.80
2023-04-22T12:49:57.926Z,2.05
2023-04-22T12:52:30.536Z,1.90
2023-04-22T12:55:04.106Z,1.90
2023-04-22T12:57:36.785Z,1.63
2023-04-22T13:00:13.665Z,1.83
2023-04-22T13:02:48.543Z,1.85
2023-04-22T13:05:21.097Z,43.95
2023-04-22T13:08:05.801Z,7.43
2023-04-22T13:10:39.823Z,11.23
2023-04-22T13:15:52.395Z,2.22
2023-04-22T13:18:24.720Z,20.08
2023-04-22T13:20:57.137Z,1.88
2023-04-22T13:23:30.182Z,2.38
2023-04-22T13:26:02.648Z,2.00
2023-04-22T13:28:35.193Z,1.80
2023-04-22T13:31:08.393Z,2.03
2023-04-22T13:33:41.617Z,2.25
2023-04-22T13:36:14.143Z,1.98
2023-04-22T13:38:46.547Z,1.80
2023-04-22T13:41:18.983Z,1.48
2023-04-22T13:43:53.685Z,1.88
2023-04-22T13:46:26.799Z,1.60
2023-04-22T13:48:59.228Z,1.50
2023-04-22T13:51:31.952Z,1.75
2023-04-22T13:54:04.900Z,1.40
2023-04-22T13:56:37.370Z,1.38
2023-04-22T13:59:09.797Z,1.35
2023-04-22T14:01:42.821Z,1.63
2023-04-22T14:04:15.237Z,1.80
2023-04-22T14:06:47.697Z,1.73
2023-04-22T14:09:20.102Z,1.55
2023-04-22T14:11:52.574Z,1.60
2023-04-22T14:14:25.044Z,1.67
2023-04-22T14:16:58.655Z,1.95
2023-04-22T14:19:31.213Z,1.75
2023-04-22T14:22:03.595Z,1.30
2023-04-22T14:24:36.945Z,1.13
2023-04-22T14:27:11.902Z,1.60
2023-04-22T14:29:45.468Z,1.52
2023-04-22T14:32:18.794Z,1.45
2023-04-22T14:34:51.343Z,1.35
2023-04-22T14:37:24.092Z,1.10
2023-04-22T14:39:57.082Z,1.35
2023-04-22T14:42:29.880Z,1.10
2023-04-22T14:45:02.377Z,1.33
2023-04-22T14:47:35.562Z,1.83
2023-04-22T14:50:08.432Z,1.40
2023-04-22T14:52:40.966Z,1.50
2023-04-22T14:55:22.647Z,1.48
2023-04-22T14:57:57.311Z,1.25
2023-04-22T15:00:30.180Z,1.65
2023-04-22T15:03:03.774Z,1.65
2023-04-22T15:05:36.348Z,1.67
2023-04-22T15:08:08.868Z,1.80
2023-04-22T15:10:41.258Z,1.50
2023-04-22T15:13:13.605Z,1.60
2023-04-22T15:15:46.022Z,1.30
2023-04-22T15:18:19.166Z,1.50
2023-04-22T15:20:51.486Z,1.83
2023-04-22T15:23:23.863Z,1.38
2023-04-22T15:25:56.252Z,1.33
2023-04-22T15:28:28.659Z,1.17
2023-04-22T15:31:01.037Z,1.60
2023-04-22T15:33:34.141Z,1.75
2023-04-22T15:36:08.588Z,1.73
2023-04-22T15:38:40.949Z,1.60
2023-04-22T15:41:13.450Z,1.50
2023-04-22T15:43:45.854Z,1.90
2023-04-22T15:46:18.276Z,1.75
2023-04-22T15:48:51.289Z,2.53
2023-04-22T15:51:23.689Z,1.63
2023-04-22T15:53:57.009Z,1.20
2023-04-22T15:56:29.406Z,1.70
2023-04-22T15:59:01.974Z,1.60
2023-04-22T16:01:34.546Z,2.33
2023-04-22T16:04:07.948Z,1.67
2023-04-22T16:06:40.866Z,1.80
2023-04-22T16:09:13.233Z,2.13
2023-04-22T16:11:45.656Z,1.27
2023-04-22T16:14:18.026Z,1.33
2023-04-22T16:16:51.642Z,1.52
2023-04-22T16:19:24.681Z,1.55
2023-04-22T16:21:57.062Z,1.80
2023-04-22T16:24:29.680Z,1.63
2023-04-22T16:27:02.374Z,1.75
2023-04-22T16:29:34.786Z,1.90
2023-04-22T16:32:07.455Z,1.85
2023-04-22T16:34:40.481Z,1.60
2023-04-22T16:37:12.873Z,1.13
2023-04-22T16:39:45.357Z,1.63
2023-04-22T16:42:17.785Z,1.83
2023-04-22T16:44:50.886Z,2.42
2023-04-22T16:47:23.637Z,1.83
2023-04-22T16:49:56.634Z,2.00
2023-04-22T16:52:29.075Z,3.30
2023-04-22T16:55:01.861Z,1.52
2023-04-22T16:57:34.563Z,1.83
2023-04-22T17:00:07.893Z,1.65
2023-04-22T17:02:40.500Z,1.27
2023-04-22T17:05:13.693Z,1.45
2023-04-22T17:07:46.121Z,1.70
2023-04-22T17:10:18.649Z,1.83
2023-04-22T17:12:52.592Z,1.70
2023-04-22T17:15:24.968Z,1.98
2023-04-22T17:18:23.343Z,2.05
2023-04-22T17:20:56.333Z,1.83
2023-04-22T17:23:28.686Z,2.35
2023-04-22T17:26:01.595Z,1.70
2023-04-22T17:28:34.159Z,2.17
2023-04-22T17:31:06.754Z,1.88
2023-04-22T17:33:40.501Z,2.53
2023-04-22T17:36:13.617Z,2.42
2023-04-22T17:38:45.910Z,2.20
2023-04-22T17:41:18.349Z,2.88
2023-04-22T17:43:51.092Z,2.97
2023-04-22T17:46:23.567Z,6.47
2023-04-22T17:48:56.100Z,4.32
2023-04-22T17:51:29.291Z,2.88
2023-04-22T17:54:02.557Z,4.45
2023-04-22T17:56:35.305Z,6.65
2023-04-22T17:59:07.756Z,3.20
2023-04-22T18:01:40.377Z,2.80
2023-04-22T18:04:13.256Z,2.60
2023-04-22T18:06:46.467Z,3.33
2023-04-22T18:09:18.852Z,2.70
2023-04-22T18:11:51.285Z,2.92
2023-04-22T18:14:24.907Z,2.70
2023-04-22T18:16:57.329Z,2.05
2023-04-22T18:19:29.796Z,2.85
2023-04-22T18:22:02.993Z,2.90
2023-04-22T18:24:35.927Z,2.20
2023-04-22T18:27:08.278Z,2.17
2023-04-22T18:29:40.893Z,2.03
2023-04-22T18:32:16.045Z,2.72
2023-04-22T18:34:48.561Z,2.63
2023-04-22T18:37:21.546Z,2.50
2023-04-22T18:39:53.870Z,3.13
2023-04-22T18:42:26.198Z,2.97
2023-04-22T18:44:58.583Z,3.65
2023-04-22T18:47:30.975Z,2.58
2023-04-22T18:50:03.859Z,2.25
2023-04-22T18:52:37.222Z,2.70
2023-04-22T18:55:10.518Z,3.28
2023-04-22T18:57:43.719Z,2.47
2023-04-22T19:00:17.020Z,2.83
2023-04-22T19:02:49.635Z,2.30
2023-04-22T19:05:22.219Z,2.60
2023-04-22T19:07:55.231Z,2.38
2023-04-22T19:10:27.641Z,2.38
2023-04-22T19:13:00.206Z,2.30
2023-04-22T19:15:32.836Z,2.83
2023-04-22T19:18:05.418Z,2.75
2023-04-22T19:20:37.821Z,2.60
2023-04-22T19:23:10.899Z,2.63
2023-04-22T19:25:43.462Z,4.18
2023-04-22T19:28:15.856Z,3.10
2023-04-22T19:30:48.285Z,3.17
2023-04-22T19:33:20.650Z,3.45
2023-04-22T19:35:52.980Z,3.90
2023-04-22T19:38:26.057Z,3.20
2023-04-22T19:40:58.505Z,3.35
2023-04-22T19:43:30.957Z,3.80
2023-04-22T19:46:03.488Z,3.75
2023-04-22T19:48:36.518Z,4.18
2023-04-22T19:51:10.514Z,3.47
2023-04-22T19:53:43.846Z,4.03
2023-04-22T19:56:16.734Z,5.75
2023-04-22T19:58:50.420Z,4.22
2023-04-22T20:01:23.337Z,3.90
2023-04-22T20:03:56.506Z,3.97
2023-04-22T20:06:29.157Z,3.70
2023-04-22T20:09:04.716Z,3.88
2023-04-22T20:11:37.611Z,3.80
2023-04-22T20:14:12.891Z,3.88
2023-04-22T20:16:46.949Z,3.45
2023-04-22T20:19:19.464Z,4.65
2023-04-22T20:21:54.640Z,2.92
2023-04-22T20:24:31.331Z,3.58
2023-04-22T20:27:04.241Z,3.40
2023-04-22T20:29:37.644Z,3.60
2023-04-22T20:32:10.741Z,3.60
2023-04-22T20:34:43.485Z,3.67
2023-04-22T20:37:19.702Z,3.15
2023-04-22T20:39:53.843Z,3.55
2023-04-22T20:42:26.166Z,3.50
2023-04-22T20:44:58.704Z,3.88
2023-04-22T20:47:31.106Z,3.72
2023-04-22T20:50:04.088Z,3.60
2023-04-22T20:52:36.379Z,6.40
2023-04-22T20:55:10.413Z,4.72
2023-04-22T20:57:42.846Z,4.78
2023-04-22T21:00:15.645Z,4.88
2023-04-22T21:02:49.255Z,5.07
2023-04-22T21:05:22.033Z,6.85
2023-04-22T21:07:55.215Z,5.97
2023-04-22T21:10:29.295Z,4.53
2023-04-22T21:13:02.516Z,4.45
2023-04-22T21:15:35.207Z,4.32
2023-04-22T21:18:08.020Z,4.00
2023-04-22T21:20:44.211Z,7.85
2023-04-22T21:23:18.192Z,9.63
2023-04-22T21:25:54.806Z,8.32
2023-04-22T21:28:28.356Z,6.63
2023-04-22T21:31:01.513Z,7.38
2023-04-22T21:33:33.963Z,7.35
2023-04-22T21:36:06.714Z,4.55
2023-04-22T21:38:39.140Z,3.90
2023-04-22T21:41:12.518Z,5.85
2023-04-22T21:43:45.023Z,5.35
2023-04-22T21:46:18.092Z,5.65
2023-04-22T21:48:50.549Z,4.28
2023-04-22T21:51:22.993Z,5.22
2023-04-22T21:53:55.438Z,5.18
2023-04-22T21:56:30.592Z,5.35
2023-04-22T21:59:03.082Z,4.82
2023-04-22T22:01:35.496Z,5.05
2023-04-22T22:04:07.963Z,4.97
2023-04-22T22:06:40.443Z,7.53
2023-04-22T22:09:13.518Z,6.85
2023-04-22T22:11:46.480Z,6.00
2023-04-22T22:14:18.724Z,6.47
2023-04-22T22:16:52.904Z,6.63
2023-04-22T22:19:27.141Z,8.18
2023-04-22T22:21:59.386Z,7.68
2023-04-22T22:24:31.739Z,6.80
2023-04-22T22:27:04.915Z,7.65
2023-04-22T22:29:40.032Z,7.30
2023-04-22T22:32:12.604Z,7.25
2023-04-22T22:34:45.068Z,7.70
2023-04-22T22:37:17.497Z,7.47
2023-04-22T22:39:49.974Z,6.72
2023-04-22T22:42:23.124Z,6.15
2023-04-22T22:44:55.514Z,5.88
2023-04-22T22:47:27.933Z,6.00
2023-04-22T22:50:01.329Z,5.45
2023-04-22T22:52:33.769Z,6.25
2023-04-22T22:55:06.926Z,6.15
2023-04-22T22:57:39.937Z,6.13
2023-04-22T23:00:13.238Z,6.28
2023-04-22T23:02:45.725Z,6.22
2023-04-22T23:05:36.684Z,5.63
2023-04-22T23:08:09.101Z,5.53
2023-04-22T23:10:41.397Z,5.15
2023-04-22T23:13:14.447Z,5.18
2023-04-22T23:15:46.948Z,5.68
2023-04-22T23:18:19.622Z,4.97
2023-04-22T23:20:52.652Z,4.97
2023-04-22T23:23:26.144Z,5.05
2023-04-22T23:26:00.157Z,6.30
2023-04-22T23:28:34.409Z,5.07
2023-04-22T23:31:08.901Z,4.95
2023-04-22T23:33:41.882Z,7.47
2023-04-22T23:36:17.147Z,5.10
2023-04-22T23:38:49.559Z,5.03
2023-04-22T23:41:21.907Z,4.97
2023-04-22T23:43:54.822Z,4.75
2023-04-22T23:46:27.469Z,5.07
2023-04-22T23:49:00.880Z,5.00
2023-04-22T23:51:33.584Z,4.32
2023-04-22T23:54:06.182Z,5.15
2023-04-22T23:56:39.136Z,5.45
2023-04-22T23:59:31.618Z,5.72
